createdAt,value
2017-01-03T00:00:48.268Z,22.13
2017-01-03T00:01:48.207Z,22.07
2017-01-03T00:02:48.154Z,22.08
2017-01-03T00:03:48.473Z,22.1
2017-01-03T00:04:48.020Z,22.06
2017-01-03T00:05:47.962Z,22.11
2017-01-03T00:06:48.288Z,22.08
2017-01-03T00:07:47.824Z,22.18
2017-01-03T00:08:47.766Z,22.11
2017-01-03T00:09:47.705Z,22.08
2017-01-03T00:10:47.640Z,22.08
2017-01-03T00:11:47.968Z,22.08
2017-01-03T00:12:47.515Z,22.06
2017-01-03T00:13:47.450Z,22.06
2017-01-03T00:14:47.389Z,22.1
2017-01-03T00:15:47.324Z,22.07
2017-01-03T00:16:47.264Z,22.02
2017-01-03T00:17:47.401Z,22.07
2017-01-03T00:18:47.135Z,22.08
2017-01-03T00:19:47.074Z,22.14
2017-01-03T00:20:47.014Z,22.11
2017-01-03T00:21:46.945Z,22.07
2017-01-03T00:22:46.880Z,22.1
2017-01-03T00:23:46.820Z,22.1
2017-01-03T00:24:47.158Z,22.1
2017-01-03T00:25:46.699Z,22.1
2017-01-03T00:26:46.638Z,22.1
2017-01-03T00:27:46.566Z,22.11
2017-01-03T00:28:46.510Z,22.13
2017-01-03T00:29:46.441Z,22.1
2017-01-03T00:30:46.381Z,22.14
2017-01-03T00:31:46.315Z,22.11
2017-01-03T00:32:46.262Z,22.08
2017-01-03T00:33:46.195Z,22.06
2017-01-03T00:34:46.126Z,22.04
2017-01-03T00:35:46.075Z,22.1
2017-01-03T00:36:46.002Z,22.07
2017-01-03T00:37:45.945Z,22.06
2017-01-03T00:38:45.873Z,22.11
2017-01-03T00:39:45.815Z,22.06
2017-01-03T00:40:45.755Z,22.08
2017-01-03T00:41:45.686Z,22.11
2017-01-03T00:42:45.625Z,22.08
2017-01-03T00:43:45.564Z,22.1
2017-01-03T00:44:45.898Z,22.06
2017-01-03T00:45:45.437Z,22.07
2017-01-03T00:46:45.374Z,22.11
2017-01-03T00:47:45.311Z,22.13
2017-01-03T00:48:45.274Z,22.07
2017-01-03T00:49:45.187Z,22.07
2017-01-03T00:50:45.120Z,22.06
2017-01-03T00:51:45.061Z,22.1
2017-01-03T00:52:44.999Z,22.08
2017-01-03T00:53:44.930Z,22.1
2017-01-03T00:54:44.871Z,22.08
2017-01-03T00:55:44.812Z,22.06
2017-01-03T00:56:44.747Z,22.1
2017-01-03T00:57:44.681Z,22.1
2017-01-03T00:58:45.010Z,22.08
2017-01-03T00:59:44.559Z,22.02
2017-01-03T01:01:14.577Z,22.1
2017-01-03T01:02:14.516Z,22.1
2017-01-03T01:03:14.446Z,22.06
2017-01-03T01:04:14.384Z,22.07
2017-01-03T01:05:14.328Z,22.06
2017-01-03T01:06:14.257Z,22.06
2017-01-03T01:07:14.192Z,22.02
2017-01-03T01:08:14.134Z,22.1
2017-01-03T01:09:14.068Z,22.06
2017-01-03T01:10:14.011Z,22.13
2017-01-03T01:11:13.942Z,22.1
2017-01-03T01:12:13.879Z,22.11
2017-01-03T01:13:13.819Z,22.07
2017-01-03T01:14:13.753Z,22.13
2017-01-03T01:15:13.690Z,22.07
2017-01-03T01:16:13.631Z,22.11
2017-01-03T01:17:13.951Z,22.08
2017-01-03T01:18:13.500Z,22.06
2017-01-03T01:19:13.440Z,22.08
2017-01-03T01:20:13.375Z,22.06
2017-01-03T01:21:13.311Z,22.02
2017-01-03T01:22:13.247Z,22.06
2017-01-03T01:23:13.190Z,22.08
2017-01-03T01:24:13.120Z,22.1
2017-01-03T01:25:13.069Z,22.11
2017-01-03T01:26:12.998Z,22.13
2017-01-03T01:27:12.932Z,22.13
2017-01-03T01:28:12.872Z,22.08
2017-01-03T01:29:12.808Z,22.11
2017-01-03T01:30:12.743Z,22.06
2017-01-03T01:31:12.684Z,22.04
2017-01-03T01:32:12.618Z,22.1
2017-01-03T01:33:12.553Z,22.1
2017-01-03T01:34:12.490Z,22.11
2017-01-03T01:35:12.430Z,22.07
2017-01-03T01:36:12.368Z,22.08
2017-01-03T01:37:12.306Z,22.1
2017-01-03T01:38:12.265Z,22.07
2017-01-03T01:39:12.179Z,22.11
2017-01-03T01:40:12.135Z,22.11
2017-01-03T01:41:12.054Z,22.13
2017-01-03T01:42:11.995Z,22.02
2017-01-03T01:43:11.927Z,22.11
2017-01-03T01:44:11.859Z,22.15
2017-01-03T01:45:11.808Z,22.14
2017-01-03T01:46:11.736Z,22.11
2017-01-03T01:47:11.672Z,22.11
2017-01-03T01:48:11.610Z,22.07
2017-01-03T01:49:11.547Z,22.08
2017-01-03T01:50:11.487Z,22.1
2017-01-03T01:51:11.423Z,22.14
2017-01-03T01:52:11.361Z,22.07
2017-01-03T01:53:11.304Z,22.13
2017-01-03T01:54:11.231Z,22.08
2017-01-03T01:55:11.172Z,22.06
2017-01-03T01:56:11.103Z,22.1
2017-01-03T01:57:11.042Z,22.1
2017-01-03T01:58:10.980Z,22.08
2017-01-03T01:59:10.924Z,22.02
2017-01-03T02:00:10.850Z,22.1
2017-01-03T02:01:10.794Z,22.13
2017-01-03T02:02:10.727Z,22.08
2017-01-03T02:03:10.665Z,22.08
2017-01-03T02:04:10.601Z,22.1
2017-01-03T02:05:10.537Z,22.06
2017-01-03T02:06:10.478Z,22.08
2017-01-03T02:07:10.415Z,22.07
2017-01-03T02:08:10.350Z,22.06
2017-01-03T02:09:10.290Z,22.15
2017-01-03T02:10:10.223Z,22.02
2017-01-03T02:11:10.163Z,22.1
2017-01-03T02:12:10.097Z,22.1
2017-01-03T02:13:10.037Z,22.07
2017-01-03T02:14:09.972Z,22.02
2017-01-03T02:15:09.913Z,22.08
2017-01-03T02:16:09.847Z,22.08
2017-01-03T02:17:09.784Z,22.02
2017-01-03T02:18:09.722Z,22.1
2017-01-03T02:19:09.660Z,22.06
2017-01-03T02:20:09.598Z,22.11
2017-01-03T02:21:09.530Z,22.14
2017-01-03T02:22:09.468Z,22.15
2017-01-03T02:23:09.412Z,22.08
2017-01-03T02:24:09.342Z,22.02
2017-01-03T02:25:09.670Z,22.07
2017-01-03T02:26:09.219Z,22.06
2017-01-03T02:27:09.152Z,22.11
2017-01-03T02:28:09.090Z,22.13
2017-01-03T02:29:09.025Z,22.11
2017-01-03T02:30:09.351Z,22.11
2017-01-03T02:31:08.902Z,22.08
2017-01-03T02:32:08.840Z,22.02
2017-01-03T02:33:08.779Z,22.1
2017-01-03T02:34:08.713Z,22.11
2017-01-03T02:35:08.659Z,22.1
2017-01-03T02:36:08.605Z,22.06
2017-01-03T02:37:08.523Z,22.04
2017-01-03T02:38:08.465Z,22.06
2017-01-03T02:39:08.398Z,22.08
2017-01-03T02:40:08.337Z,22.14
2017-01-03T02:41:08.275Z,22.14
2017-01-03T02:42:08.210Z,22.1
2017-01-03T02:43:08.146Z,22.04
2017-01-03T02:44:08.086Z,22.11
2017-01-03T02:45:08.023Z,22.06
2017-01-03T02:46:07.958Z,22.07
2017-01-03T02:47:07.898Z,22.11
2017-01-03T02:48:07.830Z,22.11
2017-01-03T02:49:07.779Z,22.14
2017-01-03T02:50:07.707Z,22.1
2017-01-03T02:51:07.642Z,22.13
2017-01-03T02:52:07.580Z,22.08
2017-01-03T02:53:07.519Z,22.06
2017-01-03T02:54:07.456Z,22.08
2017-01-03T02:55:07.394Z,22.11
2017-01-03T02:56:07.328Z,22.04
2017-01-03T02:57:07.263Z,22.08
2017-01-03T02:58:07.205Z,22.07
2017-01-03T02:59:07.142Z,22.04
2017-01-03T03:00:07.079Z,22.04
2017-01-03T03:01:07.014Z,22.13
2017-01-03T03:02:06.955Z,22.06
2017-01-03T03:03:06.894Z,22.02
2017-01-03T03:04:06.824Z,22.1
2017-01-03T03:05:06.762Z,22.14
2017-01-03T03:06:06.702Z,22.13
2017-01-03T03:07:06.638Z,22.13
2017-01-03T03:08:06.575Z,22.07
2017-01-03T03:09:06.510Z,22.07
2017-01-03T03:10:06.450Z,22.04
2017-01-03T03:11:06.385Z,22.1
2017-01-03T03:12:06.325Z,22.02
2017-01-03T03:13:06.260Z,22.13
2017-01-03T03:14:06.199Z,22.14
2017-01-03T03:15:06.136Z,22.08
2017-01-03T03:16:06.068Z,22.1
2017-01-03T03:17:06.008Z,22.14
2017-01-03T03:18:05.944Z,22.1
2017-01-03T03:19:05.883Z,22.08
2017-01-03T03:20:05.817Z,22.1
2017-01-03T03:21:05.761Z,22.11
2017-01-03T03:22:05.693Z,22.14
2017-01-03T03:23:05.630Z,22.11
2017-01-03T03:24:05.566Z,22.15
2017-01-03T03:25:05.506Z,22.04
2017-01-03T03:26:05.440Z,22.08
2017-01-03T03:27:05.772Z,22.14
2017-01-03T03:28:05.317Z,22.1
2017-01-03T03:29:05.286Z,21.99
2017-01-03T03:30:05.188Z,22
2017-01-03T03:31:05.124Z,22.04
2017-01-03T03:32:05.071Z,22.11
2017-01-03T03:33:04.996Z,22.04
2017-01-03T03:34:04.935Z,22.11
2017-01-03T03:35:04.874Z,22.06
2017-01-03T03:36:05.203Z,22.07
2017-01-03T03:37:04.753Z,22.07
2017-01-03T03:38:04.693Z,22.08
2017-01-03T03:39:04.624Z,22.11
2017-01-03T03:40:04.560Z,22.1
2017-01-03T03:41:04.493Z,22.07
2017-01-03T03:42:04.435Z,22.18
2017-01-03T03:43:04.371Z,22.06
2017-01-03T03:44:04.312Z,22.08
2017-01-03T03:45:04.245Z,22.08
2017-01-03T03:46:04.182Z,22.15
2017-01-03T03:47:04.118Z,22.02
2017-01-03T03:48:04.058Z,22.08
2017-01-03T03:49:03.995Z,22.11
2017-01-03T03:50:03.931Z,22.11
2017-01-03T03:51:03.871Z,22.08
2017-01-03T03:52:03.804Z,22.17
2017-01-03T03:53:03.755Z,22.11
2017-01-03T03:54:03.680Z,22.15
2017-01-03T03:55:03.618Z,22.1
2017-01-03T03:56:03.554Z,22.07
2017-01-03T03:57:03.488Z,22.1
2017-01-03T03:58:03.424Z,22.1
2017-01-03T03:59:03.370Z,22.1
2017-01-03T04:00:03.304Z,22.11
2017-01-03T04:01:03.236Z,22.11
2017-01-03T04:02:03.173Z,22.04
2017-01-03T04:03:03.112Z,22.04
2017-01-03T04:04:03.048Z,22.1
2017-01-03T04:05:02.987Z,22.06
2017-01-03T04:06:02.923Z,22.07
2017-01-03T04:07:03.259Z,22.1
2017-01-03T04:08:02.797Z,22.13
2017-01-03T04:09:02.731Z,22.1
2017-01-03T04:10:02.674Z,22.06
2017-01-03T04:11:02.610Z,22.15
2017-01-03T04:12:02.545Z,22.04
2017-01-03T04:13:02.488Z,22.18
2017-01-03T04:14:02.418Z,22.1
2017-01-03T04:15:02.356Z,22.02
2017-01-03T04:16:02.292Z,22.06
2017-01-03T04:17:02.234Z,22.11
2017-01-03T04:18:02.176Z,22.06
2017-01-03T04:19:02.104Z,22.07
2017-01-03T04:20:02.041Z,22.07
2017-01-03T04:21:01.977Z,22.1
2017-01-03T04:22:01.915Z,22.11
2017-01-03T04:23:01.853Z,22.06
2017-01-03T04:24:01.792Z,22.1
2017-01-03T04:25:01.725Z,22.08
2017-01-03T04:26:01.667Z,22.06
2017-01-03T04:27:01.601Z,22.08
2017-01-03T04:28:01.535Z,22.08
2017-01-03T04:29:01.473Z,22.15
2017-01-03T04:30:01.823Z,22.04
2017-01-03T04:31:01.348Z,22.11
2017-01-03T04:32:01.288Z,22.08
2017-01-03T04:33:01.607Z,22.1
2017-01-03T04:34:01.164Z,22.13
2017-01-03T04:35:01.097Z,22.17
2017-01-03T04:36:01.029Z,22.11
2017-01-03T04:37:00.983Z,22.1
2017-01-03T04:38:00.906Z,22.04
2017-01-03T04:39:00.869Z,22.14
2017-01-03T04:40:00.781Z,22.1
2017-01-03T04:41:00.716Z,22.1
2017-01-03T04:42:00.656Z,22.08
2017-01-03T04:43:00.592Z,22.1
2017-01-03T04:44:00.528Z,22.07
2017-01-03T04:45:00.466Z,22.1
2017-01-03T04:46:00.408Z,22.14
2017-01-03T04:47:00.340Z,22.06
2017-01-03T04:48:00.277Z,22.07
2017-01-03T04:49:00.251Z,22.14
2017-01-03T04:50:00.157Z,22.06
2017-01-03T04:51:00.102Z,22.07
2017-01-03T04:52:00.024Z,22.11
2017-01-03T04:52:59.963Z,22.11
2017-01-03T04:53:59.900Z,22.04
2017-01-03T04:54:59.838Z,22
2017-01-03T04:55:59.773Z,22.06
2017-01-03T04:56:59.714Z,22.14
2017-01-03T04:57:59.645Z,22.13
2017-01-03T04:58:59.588Z,22.08
2017-01-03T04:59:59.521Z,22.11
2017-01-03T05:00:59.458Z,22.04
2017-01-03T05:01:59.398Z,22.08
2017-01-03T05:02:59.362Z,22.07
2017-01-03T05:03:59.266Z,22.1
2017-01-03T05:04:59.233Z,22.08
2017-01-03T05:05:59.143Z,22.1
2017-01-03T05:06:59.083Z,22.08
2017-01-03T05:07:59.018Z,22.06
2017-01-03T05:08:59.348Z,22.11
2017-01-03T05:09:59.285Z,22.1
2017-01-03T05:10:58.831Z,22.02
2017-01-03T05:11:58.766Z,22.13
2017-01-03T05:12:58.701Z,22.04
2017-01-03T05:13:58.642Z,22.1
2017-01-03T05:14:58.591Z,22.14
2017-01-03T05:15:58.510Z,22.08
2017-01-03T05:16:58.451Z,22.15
2017-01-03T05:17:58.391Z,22.04
2017-01-03T05:18:58.324Z,22.13
2017-01-03T05:19:58.258Z,22.04
2017-01-03T05:20:58.206Z,22.1
2017-01-03T05:21:58.140Z,22.11
2017-01-03T05:22:58.072Z,22.08
2017-01-03T05:23:58.007Z,22.08
2017-01-03T05:24:57.944Z,22.14
2017-01-03T05:25:57.889Z,22.11
2017-01-03T05:26:57.818Z,22.06
2017-01-03T05:27:57.761Z,22.1
2017-01-03T05:28:57.697Z,22.08
2017-01-03T05:29:57.630Z,22.06
2017-01-03T05:30:57.570Z,22.07
2017-01-03T05:31:57.507Z,22.06
2017-01-03T05:32:57.440Z,22.13
2017-01-03T05:33:57.379Z,22.04
2017-01-03T05:34:57.317Z,22.02
2017-01-03T05:35:57.250Z,22.11
2017-01-03T05:36:57.192Z,22.07
2017-01-03T05:37:57.122Z,22.04
2017-01-03T05:38:57.063Z,22.06
2017-01-03T05:39:57.001Z,22.04
2017-01-03T05:40:56.936Z,22.04
2017-01-03T05:41:56.893Z,22.06
2017-01-03T05:42:56.806Z,22.08
2017-01-03T05:43:56.751Z,22.07
2017-01-03T05:44:56.684Z,22.04
2017-01-03T05:45:56.626Z,22.02
2017-01-03T05:46:56.561Z,22.04
2017-01-03T05:47:56.497Z,22.08
2017-01-03T05:48:56.434Z,22.02
2017-01-03T05:49:56.370Z,21.98
2017-01-03T05:50:56.312Z,22.02
2017-01-03T05:51:56.244Z,22.06
2017-01-03T05:52:56.179Z,22.04
2017-01-03T05:53:56.117Z,22.04
2017-01-03T05:54:56.057Z,21.99
2017-01-03T05:55:55.996Z,22.1
2017-01-03T05:56:55.928Z,22.02
2017-01-03T05:57:55.868Z,22.06
2017-01-03T05:58:55.807Z,22.06
2017-01-03T05:59:55.738Z,22.1
2017-01-03T06:00:55.673Z,22
2017-01-03T06:01:55.611Z,22.04
2017-01-03T06:02:55.550Z,22.08
2017-01-03T06:03:55.487Z,22.02
2017-01-03T06:04:55.422Z,22
2017-01-03T06:05:55.361Z,22.11
2017-01-03T06:06:55.296Z,22
2017-01-03T06:07:55.237Z,21.99
2017-01-03T06:08:55.171Z,21.99
2017-01-03T06:09:55.109Z,21.98
2017-01-03T06:10:55.046Z,22.02
2017-01-03T06:11:54.983Z,21.99
2017-01-03T06:12:54.921Z,21.99
2017-01-03T06:13:54.853Z,21.98
2017-01-03T06:14:54.791Z,22.02
2017-01-03T06:15:54.732Z,22.06
2017-01-03T06:16:54.668Z,22.04
2017-01-03T06:17:54.612Z,22.08
2017-01-03T06:18:54.541Z,21.96
2017-01-03T06:19:54.481Z,22.02
2017-01-03T06:20:54.416Z,22.07
2017-01-03T06:21:54.350Z,22
2017-01-03T06:22:54.293Z,22.08
2017-01-03T06:23:54.227Z,22
2017-01-03T06:24:54.165Z,22.04
2017-01-03T06:25:54.123Z,22.02
2017-01-03T06:26:54.036Z,21.99
2017-01-03T06:27:53.974Z,21.99
2017-01-03T06:28:54.309Z,22
2017-01-03T06:29:53.852Z,21.95
2017-01-03T06:30:53.785Z,22.11
2017-01-03T06:31:53.722Z,22.02
2017-01-03T06:32:53.664Z,22.07
2017-01-03T06:33:53.599Z,21.96
2017-01-03T06:34:53.568Z,22.02
2017-01-03T06:35:53.471Z,22.02
2017-01-03T06:36:53.413Z,21.95
2017-01-03T06:37:53.343Z,21.99
2017-01-03T06:38:53.283Z,22.07
2017-01-03T06:39:53.217Z,22.04
2017-01-03T06:40:53.155Z,22.08
2017-01-03T06:41:53.094Z,21.99
2017-01-03T06:42:53.028Z,22.04
2017-01-03T06:43:52.968Z,22.08
2017-01-03T06:44:52.906Z,22.04
2017-01-03T06:45:52.842Z,21.99
2017-01-03T06:46:52.787Z,22.04
2017-01-03T06:47:52.714Z,22.1
2017-01-03T06:48:52.650Z,22
2017-01-03T06:49:52.587Z,22.04
2017-01-03T06:50:52.523Z,22.02
2017-01-03T06:51:52.462Z,21.99
2017-01-03T06:52:52.399Z,21.99
2017-01-03T06:53:52.340Z,21.98
2017-01-03T06:54:52.273Z,21.98
2017-01-03T06:55:52.210Z,22
2017-01-03T06:56:52.146Z,22.04
2017-01-03T06:57:52.096Z,22.11
2017-01-03T06:58:52.022Z,22.08
2017-01-03T06:59:51.962Z,21.98
2017-01-03T07:00:51.896Z,22.06
2017-01-03T07:01:51.831Z,22.11
2017-01-03T07:02:51.771Z,22.04
2017-01-03T07:03:51.707Z,22.11
2017-01-03T07:04:51.641Z,21.96
2017-01-03T07:05:51.581Z,22.08
2017-01-03T07:06:51.517Z,22.04
2017-01-03T07:07:51.455Z,21.99
2017-01-03T07:08:51.390Z,22.08
2017-01-03T07:09:51.326Z,22.04
2017-01-03T07:10:51.271Z,22
2017-01-03T07:11:51.201Z,22.02
2017-01-03T07:12:51.138Z,22.04
2017-01-03T07:13:51.081Z,22
2017-01-03T07:14:51.013Z,21.95
2017-01-03T07:15:50.955Z,22.02
2017-01-03T07:16:50.885Z,22.04
2017-01-03T07:17:50.826Z,21.96
2017-01-03T07:18:50.761Z,22.06
2017-01-03T07:19:50.696Z,22.08
2017-01-03T07:20:50.636Z,22.02
2017-01-03T07:21:50.571Z,22.08
2017-01-03T07:22:50.517Z,21.99
2017-01-03T07:23:50.444Z,22.04
2017-01-03T07:24:50.378Z,21.99
2017-01-03T07:25:50.323Z,22
2017-01-03T07:26:50.254Z,21.98
2017-01-03T07:27:50.193Z,21.92
2017-01-03T07:28:50.139Z,22.02
2017-01-03T07:29:50.069Z,21.99
2017-01-03T07:30:50.007Z,22.06
2017-01-03T07:31:49.965Z,21.98
2017-01-03T07:32:49.884Z,22.07
2017-01-03T07:33:49.817Z,22.13
2017-01-03T07:34:49.753Z,22.06
2017-01-03T07:35:49.691Z,21.99
2017-01-03T07:36:49.636Z,21.98
2017-01-03T07:37:49.564Z,22.02
2017-01-03T07:38:49.501Z,22.04
2017-01-03T07:39:49.444Z,22.04
2017-01-03T07:40:49.376Z,22.04
2017-01-03T07:41:49.313Z,21.98
2017-01-03T07:42:49.247Z,21.98
2017-01-03T07:43:49.186Z,22
2017-01-03T07:44:49.132Z,21.95
2017-01-03T07:45:49.059Z,21.99
2017-01-03T07:46:48.999Z,22.04
2017-01-03T07:47:48.937Z,21.92
2017-01-03T07:48:48.872Z,21.96
2017-01-03T07:49:48.807Z,22
2017-01-03T07:50:48.744Z,21.99
2017-01-03T07:51:48.686Z,21.92
2017-01-03T07:52:48.617Z,21.99
2017-01-03T07:53:48.562Z,22.06
2017-01-03T07:54:48.491Z,22.02
2017-01-03T07:55:48.430Z,22.04
2017-01-03T07:56:48.368Z,21.99
2017-01-03T07:57:48.303Z,21.99
2017-01-03T07:58:48.632Z,22
2017-01-03T07:59:48.178Z,22.02
2017-01-03T08:00:48.117Z,22
2017-01-03T08:01:48.052Z,21.95
2017-01-03T08:02:47.990Z,22.08
2017-01-03T08:03:47.923Z,22
2017-01-03T08:04:47.863Z,22.04
2017-01-03T08:05:47.806Z,21.99
2017-01-03T08:06:47.731Z,22.08
2017-01-03T08:07:47.696Z,21.95
2017-01-03T08:08:47.755Z,22
2017-01-03T08:09:47.546Z,21.96
2017-01-03T08:10:47.508Z,22.06
2017-01-03T08:11:47.420Z,22.04
2017-01-03T08:12:47.358Z,22.06
2017-01-03T08:13:47.318Z,22.02
2017-01-03T08:14:47.232Z,22.08
2017-01-03T08:15:47.180Z,21.99
2017-01-03T08:16:47.106Z,22.08
2017-01-03T08:17:47.045Z,22.06
2017-01-03T08:18:46.982Z,21.99
2017-01-03T08:19:47.120Z,21.99
2017-01-03T08:20:46.853Z,21.99
2017-01-03T08:21:46.792Z,22.02
2017-01-03T08:22:46.728Z,22
2017-01-03T08:23:46.670Z,21.99
2017-01-03T08:24:46.637Z,22
2017-01-03T08:25:46.541Z,22
2017-01-03T08:26:46.478Z,22.08
2017-01-03T08:27:46.412Z,21.99
2017-01-03T08:28:46.353Z,21.98
2017-01-03T08:29:46.286Z,21.96
2017-01-03T08:30:46.261Z,21.92
2017-01-03T08:31:46.164Z,22.1
2017-01-03T08:32:46.102Z,21.99
2017-01-03T08:33:46.036Z,22
2017-01-03T08:34:45.974Z,22.06
2017-01-03T08:35:45.910Z,22.08
2017-01-03T08:36:45.851Z,21.99
2017-01-03T08:37:45.783Z,22.04
2017-01-03T08:38:45.722Z,22.1
2017-01-03T08:39:45.657Z,22.04
2017-01-03T08:40:45.590Z,22.07
2017-01-03T08:41:45.571Z,22.18
2017-01-03T08:42:45.473Z,22.22
2017-01-03T08:43:45.405Z,22.17
2017-01-03T08:44:45.341Z,22.2
2017-01-03T08:45:45.279Z,22.14
2017-01-03T08:46:45.214Z,22.2
2017-01-03T08:47:45.153Z,22.23
2017-01-03T08:48:45.086Z,22.18
2017-01-03T08:49:45.026Z,22.32
2017-01-03T08:50:44.972Z,22.29
2017-01-03T08:51:44.897Z,22.3
2017-01-03T08:52:44.839Z,22.33
2017-01-03T08:53:44.856Z,22.18
2017-01-03T08:54:44.778Z,22.28
2017-01-03T08:55:44.653Z,22.23
2017-01-03T08:56:44.594Z,22.25
2017-01-03T08:57:44.524Z,22.25
2017-01-03T08:58:44.630Z,22.38
2017-01-03T08:59:44.395Z,22.39
2017-01-03T09:00:44.461Z,22.39
2017-01-03T09:01:44.360Z,22.3
2017-01-03T09:02:44.206Z,22.33
2017-01-03T09:03:44.150Z,22.33
2017-01-03T09:04:44.148Z,22.38
2017-01-03T09:05:44.020Z,22.38
2017-01-03T09:06:44.147Z,22.35
2017-01-03T09:07:44.007Z,22.33
2017-01-03T09:08:43.869Z,22.38
2017-01-03T09:09:44.029Z,22.41
2017-01-03T09:10:43.760Z,22.41
2017-01-03T09:11:43.815Z,22.44
2017-01-03T09:12:43.585Z,22.43
2017-01-03T09:13:43.515Z,22.43
2017-01-03T09:14:43.450Z,22.41
2017-01-03T09:15:43.393Z,22.5
2017-01-03T09:16:43.324Z,22.51
2017-01-03T09:17:43.264Z,22.44
2017-01-03T09:18:43.208Z,22.44
2017-01-03T09:19:43.227Z,22.44
2017-01-03T09:20:43.076Z,22.44
2017-01-03T09:21:43.046Z,22.45
2017-01-03T09:22:43.387Z,22.48
2017-01-03T09:23:42.884Z,22.51
2017-01-03T09:24:42.820Z,22.55
2017-01-03T09:25:42.758Z,22.62
2017-01-03T09:26:42.717Z,22.5
2017-01-03T09:27:42.801Z,22.47
2017-01-03T09:28:42.607Z,22.54
2017-01-03T09:29:42.508Z,22.6
2017-01-03T09:30:42.443Z,22.6
2017-01-03T09:31:42.379Z,22.51
2017-01-03T09:32:42.320Z,22.62
2017-01-03T09:33:42.257Z,22.59
2017-01-03T09:34:42.196Z,22.6
2017-01-03T09:35:42.136Z,22.55
2017-01-03T09:36:42.066Z,22.57
2017-01-03T09:37:42.396Z,22.57
2017-01-03T09:38:41.939Z,22.62
2017-01-03T09:39:41.879Z,22.6
2017-01-03T09:40:41.816Z,22.57
2017-01-03T09:41:41.758Z,22.66
2017-01-03T09:42:41.691Z,22.66
2017-01-03T09:43:41.711Z,22.55
2017-01-03T09:44:41.584Z,22.54
2017-01-03T09:45:41.543Z,22.62
2017-01-03T09:46:42.017Z,22.59
2017-01-03T09:47:41.445Z,22.66
2017-01-03T09:48:41.391Z,22.54
2017-01-03T09:49:41.263Z,22.62
2017-01-03T09:50:41.196Z,22.66
2017-01-03T09:51:41.139Z,22.65
2017-01-03T09:52:41.080Z,22.68
2017-01-03T09:53:41.023Z,22.72
2017-01-03T09:54:40.952Z,22.72
2017-01-03T09:55:40.881Z,22.72
2017-01-03T09:56:40.825Z,22.72
2017-01-03T09:57:40.752Z,22.69
2017-01-03T09:58:40.695Z,22.73
2017-01-03T09:59:40.635Z,22.7
2017-01-03T10:00:40.563Z,22.72
2017-01-03T10:01:40.510Z,22.72
2017-01-03T10:02:40.436Z,22.65
2017-01-03T10:03:40.488Z,22.68
2017-01-03T10:04:40.370Z,22.62
2017-01-03T10:05:40.333Z,22.62
2017-01-03T10:06:40.309Z,22.63
2017-01-03T10:07:40.273Z,22.57
2017-01-03T10:08:40.219Z,22.62
2017-01-03T10:09:40.120Z,22.72
2017-01-03T10:10:39.986Z,22.57
2017-01-03T10:11:39.892Z,22.62
2017-01-03T10:12:39.813Z,22.59
2017-01-03T10:13:39.768Z,22.65
2017-01-03T10:14:39.706Z,22.62
2017-01-03T10:15:39.631Z,22.55
2017-01-03T10:16:39.619Z,22.63
2017-01-03T10:17:39.516Z,22.55
2017-01-03T10:18:39.471Z,22.57
2017-01-03T10:19:39.505Z,22.59
2017-01-03T10:20:39.507Z,22.54
2017-01-03T10:21:39.270Z,22.65
2017-01-03T10:22:39.199Z,22.57
2017-01-03T10:23:39.126Z,22.65
2017-01-03T10:24:39.514Z,22.62
2017-01-03T10:25:39.394Z,22.57
2017-01-03T10:26:38.947Z,22.51
2017-01-03T10:27:38.891Z,22.59
2017-01-03T10:28:38.808Z,22.6
2017-01-03T10:29:38.790Z,22.55
2017-01-03T10:30:38.754Z,22.62
2017-01-03T10:31:38.724Z,22.57
2017-01-03T10:32:38.950Z,22.57
2017-01-03T10:33:38.556Z,22.62
2017-01-03T10:34:38.793Z,22.54
2017-01-03T10:35:38.567Z,22.54
2017-01-03T10:36:38.305Z,22.53
2017-01-03T10:37:38.428Z,22.55
2017-01-03T10:38:38.555Z,22.54
2017-01-03T10:39:38.412Z,22.54
2017-01-03T10:40:38.313Z,22.5
2017-01-03T10:41:38.212Z,22.5
2017-01-03T10:42:38.092Z,22.53
2017-01-03T10:43:38.010Z,22.59
2017-01-03T10:44:38.045Z,22.57
2017-01-03T10:45:37.757Z,22.59
2017-01-03T10:46:38.032Z,22.57
2017-01-03T10:47:37.760Z,22.53
2017-01-03T10:48:37.632Z,22.59
2017-01-03T10:49:38.480Z,22.47
2017-01-03T10:50:37.745Z,22.53
2017-01-03T10:51:37.369Z,22.54
2017-01-03T10:52:37.718Z,22.5
2017-01-03T10:53:37.387Z,22.57
2017-01-03T10:54:37.423Z,22.59
2017-01-03T10:55:37.555Z,22.53
2017-01-03T10:56:37.145Z,22.5
2017-01-03T10:57:37.183Z,22.43
2017-01-03T10:58:37.304Z,22.53
2017-01-03T10:59:37.359Z,22.48
2017-01-03T11:00:36.805Z,22.5
2017-01-03T11:01:36.749Z,22.45
2017-01-03T11:02:36.721Z,22.51
2017-01-03T11:03:36.664Z,22.43
2017-01-03T11:04:36.588Z,22.51
2017-01-03T11:05:36.497Z,22.48
2017-01-03T11:06:36.432Z,22.51
2017-01-03T11:07:36.372Z,22.44
2017-01-03T11:08:36.313Z,22.55
2017-01-03T11:09:36.249Z,22.54
2017-01-03T11:10:36.181Z,22.44
2017-01-03T11:11:36.123Z,22.47
2017-01-03T11:12:36.130Z,22.43
2017-01-03T11:13:36.395Z,22.48
2017-01-03T11:14:35.933Z,22.54
2017-01-03T11:15:36.257Z,22.51
2017-01-03T11:16:35.807Z,22.44
2017-01-03T11:17:35.761Z,22.48
2017-01-03T11:18:35.688Z,22.5
2017-01-03T11:19:35.674Z,22.5
2017-01-03T11:20:35.642Z,22.5
2017-01-03T11:21:35.493Z,22.44
2017-01-03T11:22:35.430Z,22.47
2017-01-03T11:23:35.367Z,22.47
2017-01-03T11:24:35.309Z,22.48
2017-01-03T11:25:35.313Z,22.44
2017-01-03T11:26:35.184Z,22.47
2017-01-03T11:27:35.123Z,22.45
2017-01-03T11:28:35.058Z,22.44
2017-01-03T11:29:35.136Z,22.45
2017-01-03T11:30:34.930Z,22.48
2017-01-03T11:31:34.869Z,22.45
2017-01-03T11:32:34.809Z,22.48
2017-01-03T11:33:34.751Z,22.47
2017-01-03T11:34:34.688Z,22.44
2017-01-03T11:35:34.617Z,22.48
2017-01-03T11:36:34.553Z,22.51
2017-01-03T11:37:34.497Z,22.41
2017-01-03T11:38:34.430Z,22.45
2017-01-03T11:39:34.366Z,22.44
2017-01-03T11:40:34.328Z,22.44
2017-01-03T11:41:34.245Z,22.45
2017-01-03T11:42:34.579Z,22.5
2017-01-03T11:43:34.123Z,22.5
2017-01-03T11:44:34.055Z,22.5
2017-01-03T11:45:33.995Z,22.45
2017-01-03T11:46:33.934Z,22.43
2017-01-03T11:47:33.874Z,22.41
2017-01-03T11:48:33.806Z,22.41
2017-01-03T11:49:33.744Z,22.44
2017-01-03T11:50:33.683Z,22.36
2017-01-03T11:51:33.623Z,22.44
2017-01-03T11:52:33.557Z,22.32
2017-01-03T11:53:33.493Z,22.45
2017-01-03T11:54:33.427Z,22.44
2017-01-03T11:55:33.378Z,22.47
2017-01-03T11:56:33.305Z,22.39
2017-01-03T11:57:33.341Z,22.39
2017-01-03T11:58:33.287Z,22.41
2017-01-03T11:59:33.116Z,22.47
2017-01-03T12:00:33.136Z,22.45
2017-01-03T12:01:33.002Z,22.43
2017-01-03T12:02:32.931Z,22.39
2017-01-03T12:03:32.868Z,22.41
2017-01-03T12:04:32.898Z,22.44
2017-01-03T12:05:32.747Z,22.39
2017-01-03T12:06:32.725Z,22.47
2017-01-03T12:07:32.627Z,22.43
2017-01-03T12:08:32.557Z,22.41
2017-01-03T12:09:32.491Z,22.33
2017-01-03T12:10:32.820Z,22.45
2017-01-03T12:11:32.472Z,22.47
2017-01-03T12:12:32.308Z,22.36
2017-01-03T12:13:32.241Z,22.45
2017-01-03T12:14:32.182Z,22.39
2017-01-03T12:15:32.126Z,22.38
2017-01-03T12:16:32.060Z,22.43
2017-01-03T12:17:31.996Z,22.48
2017-01-03T12:18:31.935Z,22.44
2017-01-03T12:19:31.869Z,22.39
2017-01-03T12:20:31.846Z,22.44
2017-01-03T12:21:31.743Z,22.41
2017-01-03T12:22:31.683Z,22.36
2017-01-03T12:23:31.624Z,22.41
2017-01-03T12:24:31.558Z,22.47
2017-01-03T12:25:31.489Z,22.48
2017-01-03T12:26:31.434Z,22.38
2017-01-03T12:27:31.370Z,22.44
2017-01-03T12:28:31.304Z,22.36
2017-01-03T12:29:31.246Z,22.39
2017-01-03T12:30:31.179Z,22.35
2017-01-03T12:31:31.118Z,22.39
2017-01-03T12:32:31.057Z,22.39
2017-01-03T12:33:31.035Z,22.39
2017-01-03T12:34:31.315Z,22.43
2017-01-03T12:35:30.867Z,22.36
2017-01-03T12:36:31.194Z,22.36
2017-01-03T12:37:30.743Z,22.43
2017-01-03T12:38:30.680Z,22.39
2017-01-03T12:39:30.623Z,22.36
2017-01-03T12:40:30.562Z,22.43
2017-01-03T12:41:30.491Z,22.44
2017-01-03T12:42:30.432Z,22.43
2017-01-03T12:43:30.364Z,22.44
2017-01-03T12:44:30.308Z,22.36
2017-01-03T12:45:30.273Z,22.41
2017-01-03T12:46:30.178Z,22.44
2017-01-03T12:47:30.118Z,22.36
2017-01-03T12:48:30.150Z,22.38
2017-01-03T12:49:29.989Z,22.35
2017-01-03T12:50:29.937Z,22.43
2017-01-03T12:51:29.874Z,22.38
2017-01-03T12:52:29.803Z,22.43
2017-01-03T12:53:29.737Z,22.36
2017-01-03T12:54:29.685Z,22.36
2017-01-03T12:55:29.616Z,22.33
2017-01-03T12:56:29.552Z,22.38
2017-01-03T12:57:29.491Z,22.38